createdAt,value
2017-11-10T00:01:23.464Z,26.27
2017-11-10T00:03:50.886Z,30.17
2017-11-10T00:06:18.325Z,32.03
2017-11-10T00:08:45.759Z,40.40
2017-11-10T00:11:13.190Z,35.00
2017-11-10T00:13:41.018Z,30.70
2017-11-10T00:16:08.867Z,35.37
2017-11-10T00:18:36.271Z,27.63
2017-11-10T00:21:03.710Z,38.97
2017-11-10T00:23:31.438Z,31.77
2017-11-10T00:25:58.865Z,35.73
2017-11-10T00:28:26.297Z,34.67
2017-11-10T00:30:53.745Z,34.80
2017-11-10T00:33:21.201Z,38.93
2017-11-10T00:35:48.665Z,32.80
2017-11-10T00:38:16.427Z,37.10
2017-11-10T00:40:43.860Z,32.73
2017-11-10T00:43:11.772Z,30.37
2017-11-10T00:45:39.196Z,38.90
2017-11-10T00:48:07.017Z,31.23
2017-11-10T00:50:34.462Z,38.83
2017-11-10T00:53:01.878Z,34.53
2017-11-10T00:55:29.791Z,38.00
2017-11-10T00:57:57.218Z,37.10
2017-11-10T01:00:25.118Z,43.13
2017-11-10T01:02:52.539Z,33.47
2017-11-10T01:05:19.974Z,31.47
2017-11-10T01:07:47.409Z,29.17
2017-11-10T01:10:14.867Z,33.93
2017-11-10T01:12:42.334Z,29.90
2017-11-10T01:15:09.794Z,34.47
2017-11-10T01:17:37.280Z,36.67
2017-11-10T01:20:04.753Z,35.77
2017-11-10T01:22:32.299Z,33.10
2017-11-10T01:24:59.782Z,33.20
2017-11-10T01:27:28.409Z,30.70
2017-11-10T01:29:56.249Z,36.00
2017-11-10T01:32:24.613Z,34.77
2017-11-10T01:34:52.041Z,31.50
2017-11-10T01:37:19.514Z,31.57
2017-11-10T01:39:46.960Z,33.97
2017-11-10T01:42:14.395Z,33.93
2017-11-10T01:44:42.321Z,34.90
2017-11-10T01:47:09.775Z,30.70
2017-11-10T01:49:54.915Z,27.47
2017-11-10T01:52:22.378Z,33.07
2017-11-10T01:54:49.873Z,31.57
2017-11-10T01:57:17.364Z,31.67
2017-11-10T01:59:44.871Z,32.33
2017-11-10T02:02:12.327Z,28.47
2017-11-10T02:04:39.771Z,32.20
2017-11-10T02:07:07.597Z,32.40
2017-11-10T02:09:35.129Z,35.93
2017-11-10T02:12:02.616Z,34.40
2017-11-10T02:14:30.075Z,36.50
2017-11-10T02:16:57.522Z,38.60
2017-11-10T02:19:24.972Z,34.40
2017-11-10T02:21:52.495Z,33.50
2017-11-10T02:24:19.961Z,38.23
2017-11-10T02:26:47.495Z,32.77
2017-11-10T02:29:14.973Z,37.20
2017-11-10T02:31:42.645Z,34.83
2017-11-10T02:34:17.011Z,35.47
2017-11-10T02:36:44.479Z,40.90
2017-11-10T02:39:11.917Z,36.23
2017-11-10T02:41:39.843Z,34.60
2017-11-10T02:44:07.313Z,37.43
2017-11-10T02:46:34.734Z,33.07
2017-11-10T02:49:02.172Z,35.57
2017-11-10T02:51:30.255Z,32.57
2017-11-10T02:53:57.692Z,34.90
2017-11-10T02:56:25.155Z,35.53
2017-11-10T02:58:52.673Z,32.33
2017-11-10T03:01:20.115Z,32.87
2017-11-10T03:03:47.561Z,35.97
2017-11-10T03:06:15.801Z,32.50
2017-11-10T03:08:43.271Z,36.17
2017-11-10T03:11:12.335Z,38.67
2017-11-10T03:13:39.763Z,37.80
2017-11-10T03:16:07.255Z,36.30
2017-11-10T03:18:35.067Z,34.30
2017-11-10T03:21:02.619Z,37.10
2017-11-10T03:23:30.168Z,37.30
2017-11-10T03:25:57.665Z,34.13
2017-11-10T03:28:25.121Z,31.27
2017-11-10T03:30:52.972Z,32.90
2017-11-10T03:33:20.693Z,40.13
2017-11-10T03:35:49.670Z,36.00
2017-11-10T03:38:17.598Z,34.43
2017-11-10T03:40:45.055Z,39.13
2017-11-10T03:43:12.539Z,33.80
2017-11-10T03:45:40.078Z,39.30
2017-11-10T03:48:08.430Z,41.67
2017-11-10T03:50:37.071Z,38.33
2017-11-10T03:53:04.623Z,39.20
2017-11-10T03:55:32.073Z,42.27
2017-11-10T03:57:59.514Z,40.13
2017-11-10T04:00:26.978Z,43.17
2017-11-10T04:02:54.449Z,36.50
2017-11-10T04:05:21.865Z,41.73
2017-11-10T04:07:49.710Z,39.07
2017-11-10T04:10:17.177Z,37.10
2017-11-10T04:12:44.638Z,33.33
2017-11-10T04:15:12.075Z,34.27
2017-11-10T04:17:39.512Z,36.83
2017-11-10T04:20:06.947Z,33.90
2017-11-10T04:22:34.881Z,36.90
2017-11-10T04:25:02.325Z,26.90
2017-11-10T04:27:29.757Z,35.20
2017-11-10T04:29:58.023Z,42.17
2017-11-10T04:32:25.951Z,37.43
2017-11-10T04:34:54.151Z,31.13
2017-11-10T04:37:21.668Z,34.97
2017-11-10T04:39:49.206Z,33.87
2017-11-10T04:42:17.673Z,32.50
2017-11-10T04:44:45.206Z,31.10
2017-11-10T04:47:12.616Z,32.70
2017-11-10T04:49:40.524Z,32.60
2017-11-10T04:52:08.015Z,35.07
2017-11-10T04:54:35.475Z,32.10
2017-11-10T04:57:03.324Z,34.80
2017-11-10T04:59:30.775Z,33.03
2017-11-10T05:01:58.865Z,35.77
2017-11-10T05:04:26.322Z,36.87
2017-11-10T05:06:53.792Z,40.53
2017-11-10T05:09:21.238Z,31.80
2017-11-10T05:11:48.729Z,38.00
2017-11-10T05:14:16.192Z,40.53
2017-11-10T05:16:43.748Z,38.63
2017-11-10T05:19:11.219Z,34.03
2017-11-10T05:21:39.384Z,38.40
2017-11-10T05:24:06.852Z,35.67
2017-11-10T05:26:34.440Z,34.90
2017-11-10T05:29:02.089Z,38.63
2017-11-10T05:31:29.538Z,41.43
2017-11-10T05:33:56.970Z,37.57
2017-11-10T05:36:24.409Z,33.73
2017-11-10T05:38:51.877Z,41.43
2017-11-10T05:41:19.363Z,39.37
2017-11-10T05:43:46.805Z,40.27
2017-11-10T05:46:14.256Z,39.13
2017-11-10T05:48:42.183Z,38.20
2017-11-10T05:51:09.621Z,45.33
2017-11-10T05:53:37.060Z,36.30
2017-11-10T05:56:04.919Z,38.97
2017-11-10T05:58:32.788Z,46.07
2017-11-10T06:01:10.148Z,40.57
2017-11-10T06:03:37.593Z,37.50
2017-11-10T06:06:05.065Z,45.90
2017-11-10T06:08:32.519Z,42.47
2017-11-10T06:10:59.991Z,42.87
2017-11-10T06:13:27.420Z,39.33
2017-11-10T06:15:56.091Z,43.80
2017-11-10T06:18:23.555Z,41.37
2017-11-10T06:20:51.402Z,40.60
2017-11-10T06:23:19.227Z,38.27
2017-11-10T06:25:46.658Z,35.03
2017-11-10T06:28:14.156Z,35.87
2017-11-10T06:30:41.615Z,41.53
2017-11-10T06:33:09.055Z,42.80
2017-11-10T06:35:36.477Z,38.27
2017-11-10T06:38:03.992Z,37.23
2017-11-10T06:40:31.473Z,38.00
2017-11-10T06:42:58.905Z,36.50
2017-11-10T06:45:26.391Z,36.53
2017-11-10T06:47:53.853Z,40.93
2017-11-10T06:50:21.296Z,33.30
2017-11-10T06:52:49.008Z,32.60
2017-11-10T06:55:16.453Z,35.93
2017-11-10T06:57:43.913Z,41.60
2017-11-10T07:00:11.358Z,37.77
2017-11-10T07:02:38.790Z,34.77
2017-11-10T07:05:06.261Z,38.57
2017-11-10T07:07:33.683Z,32.77
2017-11-10T07:10:01.527Z,29.83
2017-11-10T07:12:28.966Z,27.70
2017-11-10T07:14:56.432Z,33.03
2017-11-10T07:17:24.488Z,36.70
2017-11-10T07:19:51.918Z,28.00
2017-11-10T07:22:19.429Z,36.37
2017-11-10T07:24:46.889Z,34.33
2017-11-10T07:27:14.319Z,25.80
2017-11-10T07:29:41.741Z,25.13
2017-11-10T07:32:09.213Z,29.20
2017-11-10T07:34:36.661Z,27.60
2017-11-10T07:37:04.086Z,35.53
2017-11-10T07:39:33.237Z,25.00
2017-11-10T07:42:00.690Z,26.03
2017-11-10T07:44:28.230Z,27.30
2017-11-10T07:46:55.670Z,25.83
2017-11-10T07:49:23.136Z,29.53
2017-11-10T07:51:50.592Z,22.63
2017-11-10T07:54:18.020Z,19.37
2017-11-10T07:56:46.683Z,21.63
2017-11-10T07:59:14.239Z,24.40
2017-11-10T08:01:41.676Z,30.20
2017-11-10T08:04:09.137Z,22.70
2017-11-10T08:06:36.578Z,28.30
2017-11-10T08:09:04.056Z,23.57
2017-11-10T08:11:31.538Z,26.33
2017-11-10T08:13:58.978Z,21.10
2017-11-10T08:16:26.507Z,25.73
2017-11-10T08:18:53.948Z,26.50
2017-11-10T08:21:21.390Z,22.87
2017-11-10T08:23:48.928Z,22.57
2017-11-10T08:26:16.384Z,20.57
2017-11-10T08:28:43.873Z,19.67
2017-11-10T08:31:11.340Z,24.43
2017-11-10T08:33:38.792Z,24.50
2017-11-10T08:36:06.269Z,18.53
2017-11-10T08:38:33.802Z,23.03
2017-11-10T08:41:01.307Z,24.53
2017-11-10T08:43:28.856Z,22.10
2017-11-10T08:45:56.452Z,21.87
2017-11-10T08:48:24.069Z,26.63
2017-11-10T08:50:51.518Z,19.70
2017-11-10T08:53:18.973Z,27.07
2017-11-10T08:55:46.625Z,27.73
2017-11-10T08:58:14.457Z,22.93
2017-11-10T09:00:41.924Z,24.40
2017-11-10T09:03:09.412Z,21.80
2017-11-10T09:05:37.273Z,27.13
2017-11-10T09:20:52.652Z,24.40
2017-11-10T09:23:20.486Z,21.00
2017-11-10T09:25:48.063Z,24.70
2017-11-10T09:28:16.957Z,20.67
2017-11-10T09:30:51.052Z,23.87
2017-11-10T09:33:20.581Z,21.43
2017-11-10T09:35:53.847Z,20.50
2017-11-10T09:38:36.234Z,22.30
2017-11-10T09:41:09.414Z,20.27
2017-11-10T09:43:47.222Z,19.93
2017-11-10T09:46:16.464Z,18.17
2017-11-10T09:48:49.838Z,17.57
2017-11-10T09:51:23.138Z,20.20
2017-11-10T09:54:07.650Z,18.03
2017-11-10T09:56:45.779Z,18.13
2017-11-10T09:59:29.040Z,16.70
2017-11-10T10:02:02.283Z,17.77
2017-11-10T10:04:30.464Z,20.60
2017-11-10T10:07:16.737Z,19.20
2017-11-10T10:09:59.919Z,16.77
2017-11-10T10:12:32.994Z,17.70
2017-11-10T10:15:15.357Z,22.03
2017-11-10T10:18:02.553Z,16.47
2017-11-10T10:20:40.459Z,20.50
2017-11-10T10:23:07.949Z,21.70
2017-11-10T10:25:35.397Z,20.13
2017-11-10T10:28:02.843Z,26.83
2017-11-10T10:30:30.342Z,21.07
2017-11-10T10:32:57.814Z,20.67
2017-11-10T10:35:25.270Z,17.70
2017-11-10T10:37:52.731Z,20.37
2017-11-10T10:40:20.165Z,21.00
2017-11-10T10:42:47.614Z,19.17
2017-11-10T10:45:15.946Z,19.70
2017-11-10T10:47:43.401Z,20.13
2017-11-10T10:50:10.861Z,18.23
2017-11-10T10:52:38.304Z,19.30
2017-11-10T10:55:06.822Z,19.63
2017-11-10T10:57:34.272Z,17.43
2017-11-10T11:00:01.710Z,18.80
2017-11-10T11:02:29.141Z,16.77
2017-11-10T11:04:57.071Z,17.27
2017-11-10T11:07:24.490Z,13.53
2017-11-10T11:09:51.941Z,11.77
2017-11-10T11:12:19.863Z,13.17
2017-11-10T11:14:47.311Z,15.73
2017-11-10T11:17:14.758Z,12.70
2017-11-10T11:19:42.205Z,11.63
2017-11-10T11:22:09.665Z,12.70
2017-11-10T11:24:37.501Z,12.20
2017-11-10T11:27:06.629Z,9.60
2017-11-10T11:29:34.005Z,8.67
2017-11-10T11:32:01.508Z,9.87
2017-11-10T11:34:29.046Z,8.17
2017-11-10T11:36:56.706Z,8.47
2017-11-10T11:39:24.132Z,8.20
2017-11-10T11:41:52.060Z,10.83
2017-11-10T11:44:19.477Z,9.30
2017-11-10T11:46:46.980Z,8.10
2017-11-10T11:49:14.420Z,7.30
2017-11-10T11:51:41.897Z,9.80
2017-11-10T11:54:09.340Z,8.83
2017-11-10T11:56:36.957Z,7.73
2017-11-10T11:59:04.384Z,6.97
2017-11-10T12:01:31.833Z,7.47
2017-11-10T12:03:59.422Z,7.17
2017-11-10T12:06:27.037Z,7.70
2017-11-10T12:08:54.864Z,9.27
2017-11-10T12:11:22.412Z,10.40
2017-11-10T12:13:49.922Z,7.37
2017-11-10T12:16:17.843Z,9.27
2017-11-10T12:18:46.277Z,9.20
2017-11-10T12:21:13.712Z,8.00
2017-11-10T12:23:41.174Z,9.37
2017-11-10T12:26:08.648Z,5.67
2017-11-10T12:28:36.124Z,7.37
2017-11-10T12:31:03.614Z,6.10
2017-11-10T12:33:31.499Z,9.40
2017-11-10T12:35:58.969Z,8.30
2017-11-10T12:38:28.046Z,6.43
2017-11-10T12:40:55.480Z,7.27
2017-11-10T12:43:22.920Z,7.13
2017-11-10T12:45:50.359Z,8.83
2017-11-10T12:48:17.805Z,8.10
2017-11-10T12:50:45.239Z,9.67
2017-11-10T12:53:13.418Z,7.10
2017-11-10T12:55:41.244Z,7.00
2017-11-10T12:58:08.662Z,8.03
2017-11-10T13:00:36.342Z,8.43
2017-11-10T13:03:05.437Z,9.27
2017-11-10T13:05:32.870Z,8.03
2017-11-10T13:08:00.717Z,10.23
2017-11-10T13:10:28.146Z,7.57
2017-11-10T13:12:55.845Z,9.63
2017-11-10T13:15:23.395Z,7.23
2017-11-10T13:17:50.915Z,6.60
2017-11-10T13:20:18.349Z,8.30
2017-11-10T13:22:45.796Z,7.50
2017-11-10T13:25:13.268Z,8.03
2017-11-10T13:27:40.763Z,8.07
2017-11-10T13:30:08.811Z,9.80
2017-11-10T13:32:36.649Z,8.60
2017-11-10T13:35:04.208Z,9.67
2017-11-10T13:37:31.697Z,11.60
2017-11-10T13:39:59.226Z,7.60
2017-11-10T13:42:26.785Z,8.67
2017-11-10T13:44:54.266Z,8.00
2017-11-10T13:47:21.720Z,7.77
2017-11-10T13:49:49.177Z,11.77
2017-11-10T13:52:17.487Z,8.43
2017-11-10T13:54:44.937Z,9.27
2017-11-10T13:57:12.397Z,8.40
2017-11-10T13:59:40.933Z,8.17
2017-11-10T14:02:08.782Z,10.50
2017-11-10T14:04:36.733Z,12.03
2017-11-10T14:07:04.207Z,11.97
2017-11-10T14:09:31.666Z,9.20
2017-11-10T14:11:59.114Z,10.53
2017-11-10T14:14:26.547Z,9.67
2017-11-10T14:16:55.948Z,13.07
2017-11-10T14:19:23.402Z,10.37
2017-11-10T14:21:50.821Z,9.57
2017-11-10T14:24:18.854Z,8.30
2017-11-10T14:26:46.503Z,9.63
2017-11-10T14:29:13.976Z,11.30
2017-11-10T14:31:41.424Z,13.60
2017-11-10T14:34:09.231Z,13.60
2017-11-10T14:36:36.668Z,8.13
2017-11-10T14:39:04.133Z,10.93
2017-11-10T14:41:31.630Z,7.13
2017-11-10T14:43:59.066Z,5.93
2017-11-10T14:46:26.493Z,6.17
2017-11-10T14:48:53.912Z,5.80
2017-11-10T14:51:21.750Z,5.83
2017-11-10T14:53:49.163Z,7.60
2017-11-10T14:56:16.987Z,5.53
2017-11-10T14:58:44.440Z,5.30
2017-11-10T15:01:11.894Z,5.27
2017-11-10T15:03:39.553Z,4.17
2017-11-10T15:06:06.973Z,4.93
2017-11-10T15:08:34.397Z,4.40
2017-11-10T15:11:01.825Z,6.20
2017-11-10T15:13:29.246Z,4.20
2017-11-10T15:15:56.737Z,14.17
2017-11-10T15:18:24.552Z,3.37
2017-11-10T15:20:51.980Z,2.90
2017-11-10T15:23:19.472Z,2.80
2017-11-10T15:25:46.928Z,3.20
2017-11-10T15:28:14.388Z,2.60
2017-11-10T15:30:41.842Z,2.20
2017-11-10T15:33:09.310Z,2.00
2017-11-10T15:35:36.785Z,3.10
2017-11-10T15:38:04.200Z,2.43
2017-11-10T15:40:32.409Z,2.30
2017-11-10T15:42:59.974Z,2.70
2017-11-10T15:45:27.413Z,2.00
2017-11-10T15:47:55.220Z,2.30
2017-11-10T15:50:22.663Z,3.43
2017-11-10T15:52:50.182Z,2.27
2017-11-10T15:55:17.643Z,1.73
2017-11-10T15:57:45.865Z,2.77
2017-11-10T16:00:13.300Z,3.90
2017-11-10T16:02:41.132Z,2.20
2017-11-10T16:05:08.572Z,1.70
2017-11-10T16:07:36.032Z,1.73
2017-11-10T16:10:03.445Z,1.80
2017-11-10T16:12:31.312Z,2.60
2017-11-10T16:14:58.705Z,1.57
2017-11-10T16:17:26.136Z,1.80
2017-11-10T16:19:54.057Z,2.80
2017-11-10T16:22:21.470Z,2.17
2017-11-10T16:24:49.385Z,2.03
2017-11-10T16:27:16.870Z,2.20
2017-11-10T16:29:44.326Z,2.07
2017-11-10T16:32:11.735Z,1.87
2017-11-10T16:34:39.634Z,2.13
2017-11-10T16:37:07.105Z,3.03
2017-11-10T16:39:34.547Z,2.37
2017-11-10T16:42:01.958Z,2.43
2017-11-10T16:44:29.407Z,1.83
2017-11-10T16:46:56.821Z,2.40
2017-11-10T16:49:24.644Z,2.00
2017-11-10T16:51:52.181Z,2.13
2017-11-10T16:54:19.593Z,1.87
2017-11-10T16:56:47.051Z,2.50
2017-11-10T16:59:14.493Z,2.77
2017-11-10T17:01:41.944Z,2.13
2017-11-10T17:04:09.695Z,2.43
2017-11-10T17:06:37.169Z,2.93
2017-11-10T17:09:04.618Z,2.60
2017-11-10T17:11:33.551Z,1.60
2017-11-10T17:14:00.976Z,2.17
2017-11-10T17:16:28.412Z,3.07
2017-11-10T17:18:56.248Z,2.27
2017-11-10T17:21:23.664Z,2.70
2017-11-10T17:23:51.156Z,2.40
2017-11-10T17:26:18.806Z,2.93
2017-11-10T17:28:46.252Z,2.53
2017-11-10T17:31:14.064Z,3.90
2017-11-10T17:33:41.488Z,2.63
2017-11-10T17:36:09.120Z,2.30
2017-11-10T17:38:37.025Z,2.17
2017-11-10T17:41:04.523Z,3.97
2017-11-10T17:43:31.963Z,2.43
2017-11-10T17:45:59.413Z,2.57
2017-11-10T17:48:26.968Z,2.57
2017-11-10T17:50:54.413Z,3.40
2017-11-10T17:53:22.245Z,2.93
2017-11-10T17:55:49.810Z,3.80
2017-11-10T17:58:18.064Z,6.57
2017-11-10T18:00:45.486Z,4.00
2017-11-10T18:03:14.245Z,7.57
2017-11-10T18:05:41.692Z,3.37
2017-11-10T18:08:09.193Z,2.70
2017-11-10T18:10:36.995Z,6.63
2017-11-10T18:13:04.932Z,3.50
2017-11-10T18:15:32.781Z,4.40
2017-11-10T18:18:00.768Z,4.23
2017-11-10T18:20:29.509Z,4.80
2017-11-10T18:22:57.064Z,10.47
2017-11-10T18:25:24.461Z,3.97
2017-11-10T18:27:51.900Z,10.43
2017-11-10T18:30:19.320Z,6.73
2017-11-10T18:32:47.227Z,11.20
2017-11-10T18:35:14.670Z,6.33
2017-11-10T18:37:42.461Z,5.73
2017-11-10T18:40:09.882Z,7.33
2017-11-10T18:42:38.231Z,6.73
2017-11-10T18:45:05.665Z,6.53
2017-11-10T18:47:33.457Z,7.93
2017-11-10T18:50:00.867Z,6.90
2017-11-10T18:52:28.282Z,8.37
2017-11-10T18:54:56.596Z,5.70
2017-11-10T18:57:24.421Z,6.70
2017-11-10T18:59:51.886Z,7.20
2017-11-10T19:02:19.296Z,7.63
2017-11-10T19:04:47.202Z,6.43
2017-11-10T19:07:14.626Z,5.70
2017-11-10T19:09:42.518Z,8.87
2017-11-10T19:12:09.983Z,6.50
2017-11-10T19:14:37.649Z,5.07
2017-11-10T19:17:05.093Z,6.93
2017-11-10T19:19:32.911Z,7.67
2017-11-10T19:22:00.328Z,8.50
2017-11-10T19:24:27.765Z,10.73
2017-11-10T19:26:55.601Z,11.87
2017-11-10T19:29:23.012Z,8.17
2017-11-10T19:31:50.458Z,6.90
2017-11-10T19:34:18.381Z,7.23
2017-11-10T19:36:47.080Z,10.00
2017-11-10T19:39:14.666Z,7.93
2017-11-10T19:41:42.237Z,7.90
2017-11-10T19:44:09.678Z,10.07
2017-11-10T19:46:37.194Z,9.70
2017-11-10T19:49:04.713Z,9.73
2017-11-10T19:51:32.189Z,9.47
2017-11-10T19:53:59.697Z,6.57
2017-11-10T19:56:27.288Z,11.33
2017-11-10T19:58:54.852Z,8.90
2017-11-10T20:01:22.387Z,7.83
2017-11-10T20:03:49.967Z,10.80
2017-11-10T20:06:17.532Z,9.37
2017-11-10T20:08:45.805Z,9.63
2017-11-10T20:11:13.351Z,7.17
2017-11-10T20:13:40.966Z,7.80
2017-11-10T20:16:08.530Z,15.07
2017-11-10T20:18:36.085Z,10.17
2017-11-10T20:21:04.380Z,14.70
2017-11-10T20:23:31.905Z,6.30
2017-11-10T20:25:59.363Z,6.73
2017-11-10T20:28:26.796Z,7.50
2017-11-10T20:30:54.655Z,8.93
2017-11-10T20:33:22.173Z,5.80
2017-11-10T20:35:49.609Z,6.63
2017-11-10T20:38:17.077Z,7.43
2017-11-10T20:40:44.564Z,11.90
2017-11-10T20:43:11.981Z,11.13
2017-11-10T20:45:39.800Z,11.80
2017-11-10T20:48:07.337Z,6.10
2017-11-10T20:50:34.754Z,7.60
2017-11-10T20:53:02.302Z,12.07
2017-11-10T20:55:29.743Z,7.70
2017-11-10T20:57:57.244Z,9.30
2017-11-10T21:00:24.758Z,12.30
2017-11-10T21:02:52.238Z,8.93
2017-11-10T21:05:19.742Z,12.23
2017-11-10T21:07:47.587Z,10.27
2017-11-10T21:10:15.022Z,8.37
2017-11-10T21:12:43.608Z,7.20
2017-11-10T21:15:11.075Z,9.07
2017-11-10T21:17:38.503Z,7.97
2017-11-10T21:20:05.934Z,7.63
2017-11-10T21:22:33.746Z,7.73
2017-11-10T21:25:01.221Z,17.30
2017-11-10T21:27:28.637Z,10.63
2017-11-10T21:29:56.453Z,14.73
2017-11-10T21:32:23.888Z,7.20
2017-11-10T21:34:51.712Z,10.93
2017-11-10T21:37:19.108Z,7.70
2017-11-10T21:39:47.172Z,7.90
2017-11-10T21:42:14.989Z,7.63
2017-11-10T21:44:42.412Z,6.83
2017-11-10T21:47:10.236Z,8.07
2017-11-10T21:49:37.653Z,8.50
2017-11-10T21:52:05.062Z,8.20
2017-11-10T21:54:33.086Z,13.47
2017-11-10T21:57:01.600Z,8.97
2017-11-10T21:59:29.073Z,7.13
2017-11-10T22:01:56.507Z,9.40
2017-11-10T22:04:23.925Z,8.40
2017-11-10T22:06:51.354Z,8.03
2017-11-10T22:09:18.810Z,9.53
2017-11-10T22:11:46.259Z,11.80
2017-11-10T22:14:13.685Z,8.53
2017-11-10T22:16:41.108Z,11.40
2017-11-10T22:19:08.544Z,11.07
2017-11-10T22:21:36.185Z,9.93
2017-11-10T22:24:04.418Z,11.37
2017-11-10T22:26:31.969Z,10.53
2017-11-10T22:28:59.389Z,14.13
2017-11-10T22:31:28.000Z,10.33
2017-11-10T22:33:55.482Z,10.60
2017-11-10T22:36:23.705Z,11.77
2017-11-10T22:38:52.289Z,7.93
2017-11-10T22:41:20.104Z,10.23
2017-11-10T22:43:47.516Z,9.83
2017-11-10T22:46:15.440Z,12.03
2017-11-10T22:48:42.949Z,7.30
2017-11-10T22:51:10.366Z,6.83
2017-11-10T22:53:37.827Z,12.23
2017-11-10T22:56:05.228Z,8.27
2017-11-10T22:58:32.648Z,10.20
2017-11-10T23:01:00.919Z,7.33
2017-11-10T23:03:29.202Z,10.67
2017-11-10T23:05:56.664Z,8.57
2017-11-10T23:08:24.101Z,10.03
2017-11-10T23:10:51.916Z,9.10
2017-11-10T23:13:19.881Z,10.03
2017-11-10T23:15:48.269Z,6.60
2017-11-10T23:18:15.701Z,8.20
2017-11-10T23:20:43.295Z,8.67
2017-11-10T23:23:10.750Z,7.17
2017-11-10T23:25:38.172Z,14.83
2017-11-10T23:28:05.615Z,6.83
2017-11-10T23:30:33.937Z,4.40
2017-11-10T23:33:01.352Z,8.10
2017-11-10T23:35:28.858Z,6.90
2017-11-10T23:37:56.344Z,7.83
2017-11-10T23:40:23.789Z,8.83
2017-11-10T23:42:51.254Z,5.90
2017-11-10T23:45:19.030Z,9.27
2017-11-10T23:47:46.449Z,7.93
2017-11-10T23:50:14.267Z,13.67
2017-11-10T23:52:41.694Z,11.47
2017-11-10T23:55:09.112Z,10.73
2017-11-10T23:57:36.544Z,14.23
